sensor_id;sensor_type;location;lat;lon;timestamp;P1;durP1;ratioP1;P2;durP2;ratioP2
62852;SDS011;49205;44.868;38.140;2022-09-09T00:04:51;7.55;;;5.00;;
62852;SDS011;49205;44.868;38.140;2022-09-09T00:07:31;9.58;;;5.90;;
62852;SDS011;49205;44.868;38.140;2022-09-09T00:17:56;11.35;;;5.47;;
62852;SDS011;49205;44.868;38.140;2022-09-09T00:23:25;9.15;;;6.15;;
62852;SDS011;49205;44.868;38.140;2022-09-09T00:26:11;6.53;;;5.00;;
62852;SDS011;49205;44.868;38.140;2022-09-09T00:28:48;7.17;;;4.87;;
62852;SDS011;49205;44.868;38.140;2022-09-09T00:31:19;12.05;;;5.50;;
62852;SDS011;49205;44.868;38.140;2022-09-09T00:33:53;8.50;;;5.75;;
62852;SDS011;49205;44.868;38.140;2022-09-09T00:36:25;10.48;;;6.08;;
62852;SDS011;49205;44.868;38.140;2022-09-09T00:38:56;8.58;;;5.47;;
62852;SDS011;49205;44.868;38.140;2022-09-09T00:41:35;7.80;;;5.30;;
62852;SDS011;49205;44.868;38.140;2022-09-09T00:52:46;7.85;;;5.15;;
62852;SDS011;49205;44.868;38.140;2022-09-09T00:57:56;10.08;;;4.83;;
62852;SDS011;49205;44.868;38.140;2022-09-09T01:03:02;8.00;;;4.80;;
62852;SDS011;49205;44.868;38.140;2022-09-09T01:11:52;7.87;;;4.83;;
62852;SDS011;49205;44.868;38.140;2022-09-09T01:17:12;7.42;;;5.70;;
62852;SDS011;49205;44.868;38.140;2022-09-09T01:19:47;6.20;;;5.05;;
62852;SDS011;49205;44.868;38.140;2022-09-09T01:25:01;8.10;;;4.87;;
62852;SDS011;49205;44.868;38.140;2022-09-09T01:27:47;7.55;;;5.22;;
62852;SDS011;49205;44.868;38.140;2022-09-09T01:30:18;5.62;;;4.20;;
62852;SDS011;49205;44.868;38.140;2022-09-09T01:32:49;7.80;;;5.28;;
62852;SDS011;49205;44.868;38.140;2022-09-09T01:38:09;5.20;;;4.40;;
62852;SDS011;49205;44.868;38.140;2022-09-09T01:40:38;7.45;;;5.03;;
62852;SDS011;49205;44.868;38.140;2022-09-09T01:43:08;5.67;;;4.83;;
62852;SDS011;49205;44.868;38.140;2022-09-09T01:45:38;7.45;;;4.45;;
62852;SDS011;49205;44.868;38.140;2022-09-09T01:48:08;7.33;;;4.65;;
62852;SDS011;49205;44.868;38.140;2022-09-09T01:50:42;5.85;;;4.80;;
62852;SDS011;49205;44.868;38.140;2022-09-09T01:53:12;6.40;;;4.40;;
62852;SDS011;49205;44.868;38.140;2022-09-09T02:03:57;8.45;;;5.00;;
62852;SDS011;49205;44.868;38.140;2022-09-09T02:06:33;6.03;;;4.70;;
62852;SDS011;49205;44.868;38.140;2022-09-09T02:11:42;6.50;;;4.55;;
62852;SDS011;49205;44.868;38.140;2022-09-09T02:14:28;10.15;;;4.67;;
62852;SDS011;49205;44.868;38.140;2022-09-09T02:17:03;6.42;;;4.87;;
62852;SDS011;49205;44.868;38.140;2022-09-09T02:19:44;10.18;;;4.42;;
62852;SDS011;49205;44.868;38.140;2022-09-09T02:22:23;4.37;;;3.98;;
62852;SDS011;49205;44.868;38.140;2022-09-09T02:24:56;4.60;;;4.05;;
62852;SDS011;49205;44.868;38.140;2022-09-09T02:27:28;5.00;;;3.72;;
62852;SDS011;49205;44.868;38.140;2022-09-09T02:29:57;6.65;;;4.42;;
62852;SDS011;49205;44.868;38.140;2022-09-09T02:32:30;4.78;;;3.92;;
62852;SDS011;49205;44.868;38.140;2022-09-09T02:35:04;8.55;;;4.25;;
62852;SDS011;49205;44.868;38.140;2022-09-09T02:37:38;6.50;;;4.70;;
62852;SDS011;49205;44.868;38.140;2022-09-09T02:40:09;5.85;;;4.92;;
62852;SDS011;49205;44.868;38.140;2022-09-09T02:42:42;10.18;;;5.15;;
62852;SDS011;49205;44.868;38.140;2022-09-09T02:45:18;8.58;;;4.60;;
62852;SDS011;49205;44.868;38.140;2022-09-09T02:48:33;6.40;;;4.85;;
62852;SDS011;49205;44.868;38.140;2022-09-09T02:50:33;6.12;;;5.10;;
62852;SDS011;49205;44.868;38.140;2022-09-09T02:55:54;4.78;;;4.30;;
62852;SDS011;49205;44.868;38.140;2022-09-09T02:58:23;4.90;;;4.40;;
62852;SDS011;49205;44.868;38.140;2022-09-09T03:00:54;4.50;;;3.85;;
62852;SDS011;49205;44.868;38.140;2022-09-09T03:03:25;5.03;;;4.53;;
62852;SDS011;49205;44.868;38.140;2022-09-09T03:05:53;7.55;;;3.70;;
62852;SDS011;49205;44.868;38.140;2022-09-09T03:08:23;6.22;;;4.15;;
62852;SDS011;49205;44.868;38.140;2022-09-09T03:10:54;5.28;;;3.62;;
62852;SDS011;49205;44.868;38.140;2022-09-09T03:13:25;7.10;;;4.10;;
62852;SDS011;49205;44.868;38.140;2022-09-09T03:15:54;4.20;;;3.77;;
62852;SDS011;49205;44.868;38.140;2022-09-09T03:18:24;4.25;;;3.80;;
62852;SDS011;49205;44.868;38.140;2022-09-09T03:20:55;12.85;;;4.53;;
62852;SDS011;49205;44.868;38.140;2022-09-09T03:23:24;6.60;;;4.65;;
62852;SDS011;49205;44.868;38.140;2022-09-09T03:25:53;5.70;;;4.10;;
62852;SDS011;49205;44.868;38.140;2022-09-09T03:28:25;7.30;;;4.25;;
62852;SDS011;49205;44.868;38.140;2022-09-09T03:30:57;8.80;;;4.15;;
62852;SDS011;49205;44.868;38.140;2022-09-09T03:33:29;6.25;;;4.03;;
62852;SDS011;49205;44.868;38.140;2022-09-09T03:35:58;6.90;;;4.35;;
62852;SDS011;49205;44.868;38.140;2022-09-09T03:38:26;6.15;;;3.85;;
62852;SDS011;49205;44.868;38.140;2022-09-09T03:40:56;7.67;;;4.47;;
62852;SDS011;49205;44.868;38.140;2022-09-09T03:43:26;8.58;;;4.40;;
62852;SDS011;49205;44.868;38.140;2022-09-09T03:45:57;7.83;;;4.80;;
62852;SDS011;49205;44.868;38.140;2022-09-09T03:48:26;15.30;;;4.87;;
62852;SDS011;49205;44.868;38.140;2022-09-09T03:50:56;5.90;;;4.08;;
62852;SDS011;49205;44.868;38.140;2022-09-09T03:53:27;9.15;;;3.83;;
62852;SDS011;49205;44.868;38.140;2022-09-09T03:55:56;5.80;;;3.80;;
62852;SDS011;49205;44.868;38.140;2022-09-09T03:58:26;7.65;;;5.15;;
62852;SDS011;49205;44.868;38.140;2022-09-09T04:00:58;9.80;;;4.80;;
62852;SDS011;49205;44.868;38.140;2022-09-09T04:03:28;9.93;;;5.87;;
62852;SDS011;49205;44.868;38.140;2022-09-09T04:05:59;9.33;;;4.78;;
62852;SDS011;49205;44.868;38.140;2022-09-09T04:08:30;8.83;;;4.53;;
62852;SDS011;49205;44.868;38.140;2022-09-09T04:11:00;13.18;;;5.12;;
62852;SDS011;49205;44.868;38.140;2022-09-09T04:13:32;11.00;;;6.30;;
62852;SDS011;49205;44.868;38.140;2022-09-09T04:16:02;18.30;;;8.03;;
62852;SDS011;49205;44.868;38.140;2022-09-09T04:18:32;23.77;;;9.23;;
62852;SDS011;49205;44.868;38.140;2022-09-09T04:21:02;28.70;;;9.65;;
62852;SDS011;49205;44.868;38.140;2022-09-09T04:23:33;35.60;;;16.57;;
62852;SDS011;49205;44.868;38.140;2022-09-09T04:26:03;50.48;;;13.85;;
62852;SDS011;49205;44.868;38.140;2022-09-09T04:28:33;22.65;;;11.05;;
62852;SDS011;49205;44.868;38.140;2022-09-09T04:31:09;27.50;;;10.32;;
62852;SDS011;49205;44.868;38.140;2022-09-09T04:33:43;31.87;;;8.85;;
62852;SDS011;49205;44.868;38.140;2022-09-09T04:36:13;16.45;;;8.25;;
62852;SDS011;49205;44.868;38.140;2022-09-09T04:38:42;14.05;;;6.90;;
62852;SDS011;49205;44.868;38.140;2022-09-09T04:41:11;14.68;;;7.08;;
62852;SDS011;49205;44.868;38.140;2022-09-09T04:43:42;11.65;;;6.78;;
62852;SDS011;49205;44.868;38.140;2022-09-09T04:46:11;15.90;;;8.30;;
62852;SDS011;49205;44.868;38.140;2022-09-09T04:48:40;17.75;;;8.65;;
62852;SDS011;49205;44.868;38.140;2022-09-09T04:51:11;15.72;;;8.15;;
62852;SDS011;49205;44.868;38.140;2022-09-09T04:53:41;15.30;;;8.45;;
62852;SDS011;49205;44.868;38.140;2022-09-09T04:56:12;19.32;;;8.00;;
62852;SDS011;49205;44.868;38.140;2022-09-09T04:58:47;22.40;;;9.40;;
62852;SDS011;49205;44.868;38.140;2022-09-09T05:01:18;16.87;;;8.93;;
62852;SDS011;49205;44.868;38.140;2022-09-09T05:03:49;20.23;;;10.03;;
62852;SDS011;49205;44.868;38.140;2022-09-09T05:06:21;25.80;;;12.18;;
62852;SDS011;49205;44.868;38.140;2022-09-09T05:08:52;42.40;;;17.70;;
62852;SDS011;49205;44.868;38.140;2022-09-09T05:11:26;44.70;;;20.77;;
62852;SDS011;49205;44.868;38.140;2022-09-09T05:14:01;47.05;;;21.07;;
62852;SDS011;49205;44.868;38.140;2022-09-09T05:16:31;46.63;;;20.80;;
62852;SDS011;49205;44.868;38.140;2022-09-09T05:19:00;34.20;;;16.77;;
62852;SDS011;49205;44.868;38.140;2022-09-09T05:21:31;44.77;;;20.60;;
62852;SDS011;49205;44.868;38.140;2022-09-09T05:24:00;37.70;;;17.90;;
62852;SDS011;49205;44.868;38.140;2022-09-09T05:26:30;34.43;;;17.55;;
62852;SDS011;49205;44.868;38.140;2022-09-09T05:28:59;31.12;;;13.88;;
62852;SDS011;49205;44.868;38.140;2022-09-09T05:31:29;34.18;;;15.85;;
62852;SDS011;49205;44.868;38.140;2022-09-09T05:34:01;32.17;;;14.33;;
62852;SDS011;49205;44.868;38.140;2022-09-09T05:36:30;30.12;;;12.47;;
62852;SDS011;49205;44.868;38.140;2022-09-09T05:38:59;30.15;;;12.07;;
62852;SDS011;49205;44.868;38.140;2022-09-09T05:41:28;17.32;;;9.18;;
62852;SDS011;49205;44.868;38.140;2022-09-09T05:43:59;16.62;;;7.05;;
62852;SDS011;49205;44.868;38.140;2022-09-09T05:46:30;14.03;;;6.55;;
62852;SDS011;49205;44.868;38.140;2022-09-09T05:48:59;14.93;;;6.22;;
62852;SDS011;49205;44.868;38.140;2022-09-09T05:51:30;8.25;;;5.45;;
62852;SDS011;49205;44.868;38.140;2022-09-09T05:54:01;6.90;;;4.87;;
62852;SDS011;49205;44.868;38.140;2022-09-09T05:56:31;8.13;;;5.70;;
62852;SDS011;49205;44.868;38.140;2022-09-09T05:59:00;7.70;;;4.80;;
62852;SDS011;49205;44.868;38.140;2022-09-09T06:01:30;13.03;;;5.37;;
62852;SDS011;49205;44.868;38.140;2022-09-09T06:04:02;8.43;;;4.83;;
62852;SDS011;49205;44.868;38.140;2022-09-09T06:06:32;13.28;;;6.53;;
62852;SDS011;49205;44.868;38.140;2022-09-09T06:09:05;26.97;;;14.05;;
62852;SDS011;49205;44.868;38.140;2022-09-09T06:11:38;11.33;;;5.30;;
62852;SDS011;49205;44.868;38.140;2022-09-09T06:14:08;6.62;;;4.10;;
62852;SDS011;49205;44.868;38.140;2022-09-09T06:16:38;6.95;;;3.87;;
62852;SDS011;49205;44.868;38.140;2022-09-09T06:19:10;7.75;;;3.50;;
62852;SDS011;49205;44.868;38.140;2022-09-09T06:21:39;5.50;;;2.92;;
62852;SDS011;49205;44.868;38.140;2022-09-09T06:24:09;5.60;;;3.33;;
62852;SDS011;49205;44.868;38.140;2022-09-09T06:26:40;5.25;;;2.77;;
62852;SDS011;49205;44.868;38.140;2022-09-09T06:29:10;5.78;;;2.90;;
62852;SDS011;49205;44.868;38.140;2022-09-09T06:31:40;7.08;;;2.60;;
62852;SDS011;49205;44.868;38.140;2022-09-09T06:34:22;5.75;;;2.45;;
62852;SDS011;49205;44.868;38.140;2022-09-09T06:36:53;6.00;;;2.83;;
62852;SDS011;49205;44.868;38.140;2022-09-09T06:39:23;4.10;;;2.55;;
62852;SDS011;49205;44.868;38.140;2022-09-09T06:41:52;4.87;;;2.85;;
62852;SDS011;49205;44.868;38.140;2022-09-09T06:44:41;3.83;;;2.85;;
62852;SDS011;49205;44.868;38.140;2022-09-09T06:47:11;2.12;;;1.90;;
62852;SDS011;49205;44.868;38.140;2022-09-09T06:49:40;5.65;;;3.20;;
62852;SDS011;49205;44.868;38.140;2022-09-09T06:52:10;2.62;;;2.10;;
62852;SDS011;49205;44.868;38.140;2022-09-09T06:54:41;4.33;;;3.27;;
62852;SDS011;49205;44.868;38.140;2022-09-09T06:57:10;6.50;;;2.52;;
62852;SDS011;49205;44.868;38.140;2022-09-09T06:59:39;3.52;;;2.33;;
62852;SDS011;49205;44.868;38.140;2022-09-09T07:02:09;12.05;;;3.30;;
62852;SDS011;49205;44.868;38.140;2022-09-09T07:04:38;5.35;;;3.83;;
62852;SDS011;49205;44.868;38.140;2022-09-09T07:07:07;8.90;;;4.30;;
62852;SDS011;49205;44.868;38.140;2022-09-09T07:09:38;9.28;;;5.17;;
62852;SDS011;49205;44.868;38.140;2022-09-09T07:12:08;16.07;;;7.37;;
62852;SDS011;49205;44.868;38.140;2022-09-09T07:14:38;14.68;;;6.60;;
62852;SDS011;49205;44.868;38.140;2022-09-09T07:17:07;12.58;;;6.17;;
62852;SDS011;49205;44.868;38.140;2022-09-09T07:19:37;17.25;;;7.67;;
62852;SDS011;49205;44.868;38.140;2022-09-09T07:22:06;80.85;;;34.08;;
62852;SDS011;49205;44.868;38.140;2022-09-09T07:24:36;45.10;;;24.07;;
62852;SDS011;49205;44.868;38.140;2022-09-09T07:27:06;25.57;;;10.98;;
62852;SDS011;49205;44.868;38.140;2022-09-09T07:29:35;11.43;;;5.80;;
62852;SDS011;49205;44.868;38.140;2022-09-09T07:32:04;12.28;;;7.17;;
62852;SDS011;49205;44.868;38.140;2022-09-09T07:34:35;17.82;;;7.92;;
62852;SDS011;49205;44.868;38.140;2022-09-09T07:37:05;13.95;;;7.15;;
62852;SDS011;49205;44.868;38.140;2022-09-09T07:39:35;17.25;;;7.28;;
62852;SDS011;49205;44.868;38.140;2022-09-09T07:42:04;12.05;;;6.47;;
62852;SDS011;49205;44.868;38.140;2022-09-09T07:44:35;19.85;;;7.60;;
62852;SDS011;49205;44.868;38.140;2022-09-09T07:47:07;42.62;;;20.65;;
62852;SDS011;49205;44.868;38.140;2022-09-09T07:49:38;17.55;;;7.20;;
62852;SDS011;49205;44.868;38.140;2022-09-09T07:52:07;13.88;;;6.85;;
62852;SDS011;49205;44.868;38.140;2022-09-09T07:54:38;32.35;;;11.08;;
62852;SDS011;49205;44.868;38.140;2022-09-09T07:57:09;16.27;;;8.28;;
62852;SDS011;49205;44.868;38.140;2022-09-09T07:59:39;19.98;;;9.70;;
62852;SDS011;49205;44.868;38.140;2022-09-09T08:02:08;15.60;;;7.28;;
62852;SDS011;49205;44.868;38.140;2022-09-09T08:04:38;15.38;;;7.50;;
62852;SDS011;49205;44.868;38.140;2022-09-09T08:07:07;17.32;;;6.75;;
62852;SDS011;49205;44.868;38.140;2022-09-09T08:09:38;21.87;;;7.58;;
62852;SDS011;49205;44.868;38.140;2022-09-09T08:12:08;14.45;;;6.42;;
62852;SDS011;49205;44.868;38.140;2022-09-09T08:14:39;10.72;;;5.28;;
62852;SDS011;49205;44.868;38.140;2022-09-09T08:17:08;26.93;;;7.55;;
62852;SDS011;49205;44.868;38.140;2022-09-09T08:19:37;11.88;;;5.95;;
62852;SDS011;49205;44.868;38.140;2022-09-09T08:22:07;13.30;;;6.62;;
62852;SDS011;49205;44.868;38.140;2022-09-09T08:24:38;10.20;;;5.40;;
62852;SDS011;49205;44.868;38.140;2022-09-09T08:27:08;11.25;;;4.83;;
62852;SDS011;49205;44.868;38.140;2022-09-09T08:29:37;7.28;;;4.83;;
62852;SDS011;49205;44.868;38.140;2022-09-09T08:32:06;9.35;;;4.30;;
62852;SDS011;49205;44.868;38.140;2022-09-09T08:34:36;8.78;;;3.80;;
62852;SDS011;49205;44.868;38.140;2022-09-09T08:37:06;8.20;;;3.42;;
62852;SDS011;49205;44.868;38.140;2022-09-09T08:39:36;7.80;;;4.03;;
62852;SDS011;49205;44.868;38.140;2022-09-09T08:42:22;5.10;;;2.83;;
62852;SDS011;49205;44.868;38.140;2022-09-09T08:50:35;4.70;;;2.60;;
62852;SDS011;49205;44.868;38.140;2022-09-09T08:53:19;7.03;;;2.85;;
62852;SDS011;49205;44.868;38.140;2022-09-09T08:55:51;9.25;;;3.00;;
62852;SDS011;49205;44.868;38.140;2022-09-09T08:58:35;8.18;;;3.85;;
62852;SDS011;49205;44.868;38.140;2022-09-09T09:06:50;4.72;;;3.02;;
62852;SDS011;49205;44.868;38.140;2022-09-09T09:09:46;13.75;;;3.83;;
62852;SDS011;49205;44.868;38.140;2022-09-09T09:12:27;4.33;;;2.70;;
62852;SDS011;49205;44.868;38.140;2022-09-09T09:17:23;6.67;;;3.22;;
62852;SDS011;49205;44.868;38.140;2022-09-09T09:19:54;6.90;;;3.30;;
62852;SDS011;49205;44.868;38.140;2022-09-09T09:22:32;17.02;;;4.25;;
62852;SDS011;49205;44.868;38.140;2022-09-09T09:30:40;8.08;;;3.72;;
62852;SDS011;49205;44.868;38.140;2022-09-09T09:33:23;9.63;;;3.77;;
62852;SDS011;49205;44.868;38.140;2022-09-09T09:36:11;5.08;;;3.47;;
62852;SDS011;49205;44.868;38.140;2022-09-09T09:41:32;6.08;;;4.17;;
62852;SDS011;49205;44.868;38.140;2022-09-09T09:44:18;9.50;;;4.40;;
62852;SDS011;49205;44.868;38.140;2022-09-09T09:47:04;6.95;;;3.85;;
62852;SDS011;49205;44.868;38.140;2022-09-09T09:49:34;5.62;;;3.52;;
62852;SDS011;49205;44.868;38.140;2022-09-09T09:52:04;9.98;;;3.60;;
62852;SDS011;49205;44.868;38.140;2022-09-09T09:54:38;6.80;;;3.95;;
62852;SDS011;49205;44.868;38.140;2022-09-09T09:57:10;11.93;;;4.17;;
62852;SDS011;49205;44.868;38.140;2022-09-09T09:59:42;11.08;;;4.28;;
62852;SDS011;49205;44.868;38.140;2022-09-09T10:02:21;7.30;;;4.05;;
62852;SDS011;49205;44.868;38.140;2022-09-09T10:05:00;6.92;;;4.15;;
62852;SDS011;49205;44.868;38.140;2022-09-09T10:07:35;10.03;;;3.75;;
62852;SDS011;49205;44.868;38.140;2022-09-09T10:10:08;10.08;;;5.65;;
62852;SDS011;49205;44.868;38.140;2022-09-09T10:12:48;6.92;;;4.12;;
62852;SDS011;49205;44.868;38.140;2022-09-09T10:26:31;9.53;;;4.25;;
62852;SDS011;49205;44.868;38.140;2022-09-09T10:41:34;5.30;;;3.27;;
62852;SDS011;49205;44.868;38.140;2022-09-09T10:49:12;7.55;;;4.33;;
62852;SDS011;49205;44.868;38.140;2022-09-09T10:54:30;7.47;;;5.08;;
62852;SDS011;49205;44.868;38.140;2022-09-09T10:56:59;10.20;;;4.70;;
62852;SDS011;49205;44.868;38.140;2022-09-09T10:59:38;11.65;;;4.95;;
62852;SDS011;49205;44.868;38.140;2022-09-09T11:05:10;8.80;;;6.50;;
62852;SDS011;49205;44.868;38.140;2022-09-09T11:07:54;29.32;;;9.05;;
62852;SDS011;49205;44.868;38.140;2022-09-09T11:16:15;7.78;;;5.47;;
62852;SDS011;49205;44.868;38.140;2022-09-09T11:18:34;6.67;;;5.20;;
62852;SDS011;49205;44.868;38.140;2022-09-09T11:21:06;9.60;;;5.97;;
62852;SDS011;49205;44.868;38.140;2022-09-09T11:23:39;5.65;;;4.80;;
62852;SDS011;49205;44.868;38.140;2022-09-09T11:26:11;10.65;;;5.50;;
62852;SDS011;49205;44.868;38.140;2022-09-09T11:37:20;10.38;;;5.92;;
62852;SDS011;49205;44.868;38.140;2022-09-09T11:42:24;8.53;;;6.08;;
62852;SDS011;49205;44.868;38.140;2022-09-09T11:44:53;9.35;;;6.67;;
62852;SDS011;49205;44.868;38.140;2022-09-09T11:47:25;18.75;;;6.85;;
62852;SDS011;49205;44.868;38.140;2022-09-09T11:52:48;9.18;;;8.10;;
62852;SDS011;49205;44.868;38.140;2022-09-09T11:55:29;9.80;;;6.53;;
62852;SDS011;49205;44.868;38.140;2022-09-09T11:58:04;6.37;;;5.47;;
62852;SDS011;49205;44.868;38.140;2022-09-09T12:00:45;11.03;;;4.67;;
62852;SDS011;49205;44.868;38.140;2022-09-09T12:06:24;13.13;;;6.15;;
62852;SDS011;49205;44.868;38.140;2022-09-09T12:08:50;11.50;;;5.40;;
62852;SDS011;49205;44.868;38.140;2022-09-09T12:11:29;5.78;;;4.75;;
62852;SDS011;49205;44.868;38.140;2022-09-09T12:13:59;7.53;;;5.33;;
62852;SDS011;49205;44.868;38.140;2022-09-09T12:16:39;7.25;;;5.12;;
62852;SDS011;49205;44.868;38.140;2022-09-09T12:19:06;5.97;;;5.17;;
62852;SDS011;49205;44.868;38.140;2022-09-09T12:21:49;8.60;;;5.20;;
62852;SDS011;49205;44.868;38.140;2022-09-09T12:24:13;6.50;;;5.17;;
62852;SDS011;49205;44.868;38.140;2022-09-09T12:26:52;11.73;;;5.60;;
62852;SDS011;49205;44.868;38.140;2022-09-09T12:29:27;9.78;;;5.87;;
62852;SDS011;49205;44.868;38.140;2022-09-09T12:32:13;9.38;;;5.03;;
62852;SDS011;49205;44.868;38.140;2022-09-09T12:34:47;7.03;;;5.78;;
62852;SDS011;49205;44.868;38.140;2022-09-09T12:37:35;6.45;;;5.85;;
62852;SDS011;49205;44.868;38.140;2022-09-09T12:40:19;5.60;;;5.10;;
62852;SDS011;49205;44.868;38.140;2022-09-09T12:42:53;12.47;;;6.03;;
62852;SDS011;49205;44.868;38.140;2022-09-09T12:45:24;7.95;;;5.35;;
62852;SDS011;49205;44.868;38.140;2022-09-09T12:47:55;5.50;;;4.85;;
62852;SDS011;49205;44.868;38.140;2022-09-09T12:50:35;5.30;;;4.70;;
62852;SDS011;49205;44.868;38.140;2022-09-09T12:53:10;6.45;;;5.28;;
62852;SDS011;49205;44.868;38.140;2022-09-09T12:55:37;6.03;;;4.78;;
62852;SDS011;49205;44.868;38.140;2022-09-09T12:58:07;6.20;;;4.92;;
62852;SDS011;49205;44.868;38.140;2022-09-09T13:00:48;6.10;;;4.80;;
62852;SDS011;49205;44.868;38.140;2022-09-09T13:03:17;7.03;;;5.37;;
62852;SDS011;49205;44.868;38.140;2022-09-09T13:05:51;5.50;;;5.00;;
62852;SDS011;49205;44.868;38.140;2022-09-09T13:08:23;8.05;;;5.20;;
62852;SDS011;49205;44.868;38.140;2022-09-09T13:10:54;7.12;;;5.03;;
62852;SDS011;49205;44.868;38.140;2022-09-09T13:13:43;11.95;;;5.83;;
62852;SDS011;49205;44.868;38.140;2022-09-09T13:16:24;8.00;;;5.47;;
62852;SDS011;49205;44.868;38.140;2022-09-09T13:18:50;7.20;;;4.90;;
62852;SDS011;49205;44.868;38.140;2022-09-09T13:21:29;10.95;;;5.37;;
62852;SDS011;49205;44.868;38.140;2022-09-09T13:24:01;5.90;;;5.03;;
62852;SDS011;49205;44.868;38.140;2022-09-09T13:26:31;9.53;;;5.10;;
62852;SDS011;49205;44.868;38.140;2022-09-09T13:29:17;5.58;;;4.53;;
62852;SDS011;49205;44.868;38.140;2022-09-09T13:31:47;6.25;;;4.45;;
62852;SDS011;49205;44.868;38.140;2022-09-09T13:37:01;5.60;;;4.30;;
62852;SDS011;49205;44.868;38.140;2022-09-09T13:39:36;9.30;;;5.40;;
62852;SDS011;49205;44.868;38.140;2022-09-09T13:42:18;6.05;;;5.45;;
62852;SDS011;49205;44.868;38.140;2022-09-09T13:44:38;8.98;;;6.33;;
62852;SDS011;49205;44.868;38.140;2022-09-09T13:49:43;9.00;;;6.35;;
62852;SDS011;49205;44.868;38.140;2022-09-09T13:52:13;10.48;;;6.45;;
62852;SDS011;49205;44.868;38.140;2022-09-09T13:54:52;7.90;;;5.97;;
62852;SDS011;49205;44.868;38.140;2022-09-09T13:57:24;8.68;;;5.60;;
62852;SDS011;49205;44.868;38.140;2022-09-09T13:59:54;8.38;;;5.60;;
62852;SDS011;49205;44.868;38.140;2022-09-09T14:02:23;11.55;;;9.25;;
62852;SDS011;49205;44.868;38.140;2022-09-09T14:04:52;12.13;;;9.38;;
62852;SDS011;49205;44.868;38.140;2022-09-09T14:07:22;8.25;;;5.30;;
62852;SDS011;49205;44.868;38.140;2022-09-09T14:09:52;6.65;;;5.25;;
62852;SDS011;49205;44.868;38.140;2022-09-09T14:12:21;6.97;;;6.28;;
62852;SDS011;49205;44.868;38.140;2022-09-09T14:14:50;9.15;;;5.87;;
62852;SDS011;49205;44.868;38.140;2022-09-09T14:17:20;8.10;;;6.15;;
62852;SDS011;49205;44.868;38.140;2022-09-09T14:19:49;7.08;;;6.37;;
62852;SDS011;49205;44.868;38.140;2022-09-09T14:22:19;8.23;;;6.00;;
62852;SDS011;49205;44.868;38.140;2022-09-09T14:24:48;7.55;;;5.97;;
62852;SDS011;49205;44.868;38.140;2022-09-09T14:27:17;9.43;;;6.47;;
62852;SDS011;49205;44.868;38.140;2022-09-09T14:29:47;12.65;;;7.42;;
62852;SDS011;49205;44.868;38.140;2022-09-09T14:32:16;8.15;;;6.55;;
62852;SDS011;49205;44.868;38.140;2022-09-09T14:34:45;9.83;;;6.35;;
62852;SDS011;49205;44.868;38.140;2022-09-09T14:37:16;9.78;;;6.75;;
62852;SDS011;49205;44.868;38.140;2022-09-09T14:39:45;10.80;;;9.20;;
62852;SDS011;49205;44.868;38.140;2022-09-09T14:42:16;9.93;;;7.92;;
62852;SDS011;49205;44.868;38.140;2022-09-09T14:44:46;8.35;;;7.10;;
62852;SDS011;49205;44.868;38.140;2022-09-09T14:47:15;11.70;;;8.65;;
62852;SDS011;49205;44.868;38.140;2022-09-09T14:49:45;10.65;;;7.67;;
62852;SDS011;49205;44.868;38.140;2022-09-09T14:52:15;14.55;;;9.58;;
62852;SDS011;49205;44.868;38.140;2022-09-09T14:54:45;10.72;;;9.00;;
62852;SDS011;49205;44.868;38.140;2022-09-09T14:57:14;11.43;;;8.63;;
62852;SDS011;49205;44.868;38.140;2022-09-09T14:59:43;12.30;;;9.85;;
62852;SDS011;49205;44.868;38.140;2022-09-09T15:02:13;11.97;;;10.13;;
62852;SDS011;49205;44.868;38.140;2022-09-09T15:04:42;16.02;;;11.20;;
62852;SDS011;49205;44.868;38.140;2022-09-09T15:07:12;23.67;;;11.38;;
62852;SDS011;49205;44.868;38.140;2022-09-09T15:09:42;19.48;;;11.20;;
62852;SDS011;49205;44.868;38.140;2022-09-09T15:12:11;19.27;;;11.70;;
62852;SDS011;49205;44.868;38.140;2022-09-09T15:14:41;49.33;;;26.50;;
62852;SDS011;49205;44.868;38.140;2022-09-09T15:17:11;57.75;;;28.02;;
62852;SDS011;49205;44.868;38.140;2022-09-09T15:19:40;64.55;;;30.23;;
62852;SDS011;49205;44.868;38.140;2022-09-09T15:22:09;68.17;;;34.55;;
62852;SDS011;49205;44.868;38.140;2022-09-09T15:24:38;54.18;;;28.23;;
62852;SDS011;49205;44.868;38.140;2022-09-09T15:27:08;55.58;;;30.27;;
62852;SDS011;49205;44.868;38.140;2022-09-09T15:29:37;58.40;;;31.77;;
62852;SDS011;49205;44.868;38.140;2022-09-09T15:32:06;59.00;;;32.00;;
62852;SDS011;49205;44.868;38.140;2022-09-09T15:34:36;47.78;;;25.50;;
62852;SDS011;49205;44.868;38.140;2022-09-09T15:37:05;35.80;;;19.12;;
62852;SDS011;49205;44.868;38.140;2022-09-09T15:39:37;33.95;;;19.80;;
62852;SDS011;49205;44.868;38.140;2022-09-09T15:42:07;30.32;;;19.00;;
62852;SDS011;49205;44.868;38.140;2022-09-09T15:44:41;25.08;;;16.40;;
62852;SDS011;49205;44.868;38.140;2022-09-09T15:47:11;27.40;;;16.32;;
62852;SDS011;49205;44.868;38.140;2022-09-09T15:49:40;25.57;;;14.73;;
62852;SDS011;49205;44.868;38.140;2022-09-09T15:52:10;29.75;;;18.07;;
62852;SDS011;49205;44.868;38.140;2022-09-09T15:54:39;41.42;;;23.98;;
62852;SDS011;49205;44.868;38.140;2022-09-09T15:59:58;51.58;;;27.35;;
62852;SDS011;49205;44.868;38.140;2022-09-09T16:02:27;117.33;;;65.15;;
62852;SDS011;49205;44.868;38.140;2022-09-09T16:04:57;54.27;;;29.32;;
62852;SDS011;49205;44.868;38.140;2022-09-09T16:07:28;46.05;;;27.77;;
62852;SDS011;49205;44.868;38.140;2022-09-09T16:09:57;86.57;;;31.35;;
62852;SDS011;49205;44.868;38.140;2022-09-09T16:12:27;77.35;;;26.17;;
62852;SDS011;49205;44.868;38.140;2022-09-09T16:14:56;44.53;;;17.67;;
62852;SDS011;49205;44.868;38.140;2022-09-09T16:17:26;36.60;;;15.58;;
62852;SDS011;49205;44.868;38.140;2022-09-09T16:19:56;52.20;;;17.35;;
62852;SDS011;49205;44.868;38.140;2022-09-09T16:22:25;31.90;;;12.68;;
62852;SDS011;49205;44.868;38.140;2022-09-09T16:24:54;39.10;;;12.88;;
62852;SDS011;49205;44.868;38.140;2022-09-09T16:27:24;20.60;;;10.80;;
62852;SDS011;49205;44.868;38.140;2022-09-09T16:29:53;27.27;;;10.50;;
62852;SDS011;49205;44.868;38.140;2022-09-09T16:32:23;24.27;;;12.25;;
62852;SDS011;49205;44.868;38.140;2022-09-09T16:34:52;28.32;;;13.40;;
62852;SDS011;49205;44.868;38.140;2022-09-09T16:37:21;35.40;;;12.65;;
62852;SDS011;49205;44.868;38.140;2022-09-09T16:39:51;29.02;;;9.83;;
62852;SDS011;49205;44.868;38.140;2022-09-09T16:42:21;35.08;;;14.95;;
62852;SDS011;49205;44.868;38.140;2022-09-09T16:44:50;54.10;;;25.70;;
62852;SDS011;49205;44.868;38.140;2022-09-09T16:47:20;26.97;;;16.23;;
62852;SDS011;49205;44.868;38.140;2022-09-09T16:49:49;27.15;;;12.43;;
62852;SDS011;49205;44.868;38.140;2022-09-09T16:52:18;20.37;;;9.85;;
62852;SDS011;49205;44.868;38.140;2022-09-09T16:54:48;17.98;;;8.50;;
62852;SDS011;49205;44.868;38.140;2022-09-09T16:57:17;20.00;;;8.33;;
62852;SDS011;49205;44.868;38.140;2022-09-09T16:59:46;22.07;;;8.08;;
62852;SDS011;49205;44.868;38.140;2022-09-09T17:02:16;21.05;;;10.70;;
62852;SDS011;49205;44.868;38.140;2022-09-09T17:04:45;26.02;;;12.75;;
62852;SDS011;49205;44.868;38.140;2022-09-09T17:07:14;20.08;;;9.68;;
62852;SDS011;49205;44.868;38.140;2022-09-09T17:09:45;37.98;;;10.38;;
62852;SDS011;49205;44.868;38.140;2022-09-09T17:12:15;32.58;;;10.55;;
62852;SDS011;49205;44.868;38.140;2022-09-09T17:14:44;34.73;;;12.15;;
62852;SDS011;49205;44.868;38.140;2022-09-09T17:17:13;41.95;;;13.70;;